createdAt,value
2019-05-17T00:00:37.489Z,57.30
2019-05-17T00:03:07.252Z,57.50
2019-05-17T00:05:37.509Z,57.00
2019-05-17T00:08:07.661Z,56.80
2019-05-17T00:10:37.646Z,57.20
2019-05-17T00:13:07.236Z,57.40
2019-05-17T00:15:37.160Z,57.70
2019-05-17T00:18:06.695Z,57.90
2019-05-17T00:20:37.541Z,58.30
2019-05-17T00:23:07.096Z,58.90
2019-05-17T00:25:36.879Z,58.40
2019-05-17T00:28:07.252Z,57.80
2019-05-17T00:30:37.197Z,58.30
2019-05-17T00:33:07.877Z,58.60
2019-05-17T00:35:37.767Z,59.40
2019-05-17T00:38:07.021Z,58.80
2019-05-17T00:40:36.539Z,58.50
2019-05-17T00:43:06.831Z,58.80
2019-05-17T00:45:37.591Z,58.60
2019-05-17T00:48:06.645Z,58.90
2019-05-17T00:50:37.876Z,59.20
2019-05-17T00:53:07.341Z,59.50
2019-05-17T00:55:36.468Z,59.40
2019-05-17T00:58:06.807Z,59.80
2019-05-17T01:00:37.627Z,61.00
2019-05-17T01:03:07.123Z,61.70
2019-05-17T01:05:37.029Z,61.60
2019-05-17T01:08:07.294Z,61.40
2019-05-17T01:10:36.956Z,61.30
2019-05-17T01:13:06.770Z,61.40
2019-05-17T01:15:36.847Z,61.30
2019-05-17T01:18:07.147Z,60.90
2019-05-17T01:20:37.160Z,61.10
2019-05-17T01:23:07.627Z,61.80
2019-05-17T01:25:37.757Z,61.90
2019-05-17T01:28:07.819Z,62.00
2019-05-17T01:30:37.526Z,62.80
2019-05-17T01:33:06.798Z,64.20
2019-05-17T01:35:37.457Z,64.20
2019-05-17T01:38:07.300Z,64.80
2019-05-17T01:40:37.349Z,65.70
2019-05-17T01:43:07.833Z,65.90
2019-05-17T01:45:36.837Z,65.50
2019-05-17T01:48:07.301Z,65.50
2019-05-17T01:50:37.288Z,65.40
2019-05-17T01:53:07.471Z,65.10
2019-05-17T01:55:37.417Z,64.80
2019-05-17T01:58:07.383Z,65.60
2019-05-17T02:00:37.544Z,66.30
2019-05-17T02:03:07.181Z,66.50
2019-05-17T02:05:37.342Z,66.50
2019-05-17T02:08:07.330Z,65.90
2019-05-17T02:10:37.615Z,66.00
2019-05-17T02:13:06.835Z,66.00
2019-05-17T02:15:37.722Z,65.10
2019-05-17T02:18:07.008Z,65.50
2019-05-17T02:20:37.191Z,66.60
2019-05-17T02:23:07.276Z,66.80
2019-05-17T02:25:36.953Z,67.10
2019-05-17T02:28:06.309Z,66.60
2019-05-17T02:30:35.233Z,67.60
2019-05-17T02:33:04.513Z,67.30
2019-05-17T02:35:34.079Z,67.10
2019-05-17T02:38:03.436Z,67.30
2019-05-17T02:40:34.151Z,67.00
2019-05-17T02:43:03.468Z,67.10
2019-05-17T02:45:33.036Z,67.60
2019-05-17T02:48:03.597Z,68.20
2019-05-17T02:50:33.459Z,68.10
2019-05-17T02:53:04.429Z,68.10
2019-05-17T02:55:33.664Z,69.20
2019-05-17T02:58:03.367Z,69.40
2019-05-17T03:00:33.865Z,69.00
2019-05-17T03:03:04.403Z,69.20
2019-05-17T03:05:34.100Z,69.20
2019-05-17T03:08:04.241Z,68.50
2019-05-17T03:10:33.657Z,68.60
2019-05-17T03:13:03.974Z,68.90
2019-05-17T03:15:33.526Z,69.20
2019-05-17T03:18:03.804Z,70.10
2019-05-17T03:20:33.171Z,69.70
2019-05-17T03:23:03.737Z,68.90
2019-05-17T03:25:33.418Z,69.40
2019-05-17T03:28:04.093Z,70.00
2019-05-17T03:30:36.299Z,70.80
2019-05-17T03:33:07.252Z,71.30
2019-05-17T03:35:38.007Z,70.50
2019-05-17T03:38:06.058Z,70.30
2019-05-17T03:41:03.260Z,70.60
2019-05-17T03:43:05.311Z,70.20
2019-05-17T03:45:34.350Z,69.90
2019-05-17T03:48:04.841Z,70.00
2019-05-17T03:50:34.007Z,70.80
2019-05-17T03:53:03.233Z,72.10
2019-05-17T03:55:33.280Z,73.90
2019-05-17T03:58:03.641Z,74.20
2019-05-17T04:00:35.494Z,74.90
2019-05-17T04:03:03.383Z,74.90
2019-05-17T04:05:33.357Z,75.90
2019-05-17T04:08:03.779Z,76.00
2019-05-17T04:10:33.738Z,76.70
2019-05-17T04:13:04.135Z,78.70
2019-05-17T04:15:33.338Z,79.90
2019-05-17T04:18:04.341Z,79.50
2019-05-17T04:20:33.489Z,80.00
2019-05-17T04:23:03.866Z,80.50
2019-05-17T04:25:33.846Z,81.00
2019-05-17T04:28:03.314Z,80.80
2019-05-17T04:30:32.837Z,80.90
2019-05-17T04:33:03.368Z,81.10
2019-05-17T04:35:32.831Z,80.70
2019-05-17T04:38:04.281Z,81.20
2019-05-17T04:40:33.934Z,80.60
2019-05-17T04:43:03.580Z,81.40
2019-05-17T04:45:33.822Z,80.70
2019-05-17T04:48:04.141Z,80.80
2019-05-17T04:50:34.749Z,80.80
2019-05-17T04:53:03.496Z,81.20
2019-05-17T04:55:34.067Z,80.80
2019-05-17T04:58:04.088Z,80.60
2019-05-17T05:00:34.307Z,80.60
2019-05-17T05:03:04.544Z,80.30
2019-05-17T05:05:33.634Z,80.90
2019-05-17T05:08:03.359Z,81.00
2019-05-17T05:10:33.844Z,81.20
2019-05-17T05:13:03.275Z,82.20
2019-05-17T05:15:44.854Z,80.80
2019-05-17T05:18:14.056Z,81.60
2019-05-17T05:20:43.451Z,81.40
2019-05-17T05:23:13.183Z,80.60
2019-05-17T05:25:42.967Z,80.00
2019-05-17T05:28:12.045Z,80.30
2019-05-17T05:30:42.208Z,80.00
2019-05-17T05:33:12.784Z,80.90
2019-05-17T05:35:47.615Z,80.50
2019-05-17T05:38:16.498Z,80.80
2019-05-17T05:40:45.227Z,80.00
2019-05-17T05:43:13.966Z,80.80
2019-05-17T05:45:42.714Z,80.10
2019-05-17T05:48:12.894Z,79.40
2019-05-17T05:50:43.210Z,79.00
2019-05-17T05:53:12.905Z,78.90
2019-05-17T05:55:43.011Z,78.70
2019-05-17T05:58:12.649Z,80.70
2019-05-17T06:00:42.659Z,79.90
2019-05-17T06:03:12.355Z,77.90
2019-05-17T06:05:42.184Z,78.40
2019-05-17T06:08:12.277Z,78.60
2019-05-17T06:10:42.550Z,78.90
2019-05-17T06:13:13.064Z,79.20
2019-05-17T06:15:42.934Z,78.80
2019-05-17T06:18:12.541Z,78.40
2019-05-17T06:20:41.980Z,78.40
2019-05-17T06:23:12.379Z,79.20
2019-05-17T06:25:43.522Z,78.30
2019-05-17T06:28:11.849Z,78.10
2019-05-17T06:30:42.943Z,78.30
2019-05-17T06:33:12.001Z,79.20
2019-05-17T06:35:42.428Z,78.70
2019-05-17T06:38:12.272Z,78.50
2019-05-17T06:40:42.108Z,79.50
2019-05-17T06:43:13.058Z,79.00
2019-05-17T06:45:42.042Z,78.50
2019-05-17T06:48:11.698Z,79.50
2019-05-17T06:50:43.032Z,78.20
2019-05-17T06:53:12.593Z,77.40
2019-05-17T06:55:42.562Z,77.10
2019-05-17T06:58:12.242Z,77.80
2019-05-17T07:00:41.339Z,77.50
2019-05-17T07:03:10.097Z,77.80
2019-05-17T07:05:40.830Z,78.70
2019-05-17T07:08:10.872Z,78.40
2019-05-17T07:10:40.179Z,79.10
2019-05-17T07:13:10.589Z,78.10
2019-05-17T07:15:47.365Z,78.00
2019-05-17T07:18:10.465Z,76.60
2019-05-17T07:20:39.683Z,77.00
2019-05-17T07:23:10.750Z,77.30
2019-05-17T07:25:39.700Z,77.40
2019-05-17T07:28:10.016Z,78.10
2019-05-17T07:30:40.050Z,76.70
2019-05-17T07:33:10.214Z,76.40
2019-05-17T07:35:39.800Z,76.80
2019-05-17T07:38:10.716Z,75.60
2019-05-17T07:40:40.113Z,74.60
2019-05-17T07:43:14.368Z,74.50
2019-05-17T07:45:40.416Z,74.40
2019-05-17T07:48:09.925Z,74.30
2019-05-17T07:50:39.763Z,74.50
2019-05-17T07:53:10.370Z,75.00
2019-05-17T07:55:39.938Z,75.10
2019-05-17T07:58:09.972Z,75.60
2019-05-17T08:00:40.031Z,75.60
2019-05-17T08:03:12.794Z,74.40
2019-05-17T08:05:40.247Z,73.40
2019-05-17T08:08:10.933Z,72.60
2019-05-17T08:10:41.379Z,72.20
2019-05-17T08:13:24.771Z,73.00
2019-05-17T08:15:41.682Z,73.60
2019-05-17T08:18:11.845Z,74.10
2019-05-17T08:20:41.585Z,72.50
2019-05-17T08:23:11.672Z,70.40
2019-05-17T08:25:52.023Z,69.70
2019-05-17T08:28:11.289Z,70.00
2019-05-17T08:30:40.830Z,71.90
2019-05-17T08:33:10.899Z,70.90
2019-05-17T08:35:40.487Z,70.20
2019-05-17T08:38:10.280Z,69.80
2019-05-17T08:40:40.554Z,67.90
2019-05-17T08:43:10.155Z,68.00
2019-05-17T08:45:40.753Z,67.10
2019-05-17T08:48:09.976Z,65.60
2019-05-17T08:50:40.299Z,65.20
2019-05-17T08:53:10.661Z,66.20
2019-05-17T08:55:41.098Z,67.50
2019-05-17T08:58:10.593Z,67.90
2019-05-17T09:00:40.714Z,69.60
2019-05-17T09:03:10.727Z,71.10
2019-05-17T09:05:41.662Z,72.10
2019-05-17T09:08:10.660Z,73.40
2019-05-17T09:10:40.772Z,74.00
2019-05-17T09:13:12.272Z,73.40
2019-05-17T09:15:40.260Z,73.00
2019-05-17T09:18:09.837Z,72.20
2019-05-17T09:20:40.528Z,71.70
2019-05-17T09:23:09.843Z,71.30
2019-05-17T09:25:39.696Z,69.90
2019-05-17T09:28:10.266Z,68.50
2019-05-17T09:30:40.437Z,67.80
2019-05-17T09:33:11.230Z,66.30
2019-05-17T09:35:40.976Z,65.00
2019-05-17T09:38:10.686Z,65.50
2019-05-17T09:40:40.258Z,65.80
2019-05-17T09:43:10.272Z,64.70
2019-05-17T09:45:40.598Z,65.40
2019-05-17T09:48:10.639Z,66.50
2019-05-17T09:50:40.089Z,66.40
2019-05-17T09:53:10.816Z,67.40
2019-05-17T09:55:39.842Z,67.80
2019-05-17T09:58:09.957Z,67.00
2019-05-17T10:00:39.250Z,65.40
2019-05-17T10:03:09.786Z,63.70
2019-05-17T10:05:40.542Z,62.40
2019-05-17T10:08:11.043Z,62.00
2019-05-17T10:10:40.286Z,61.20
2019-05-17T10:13:09.829Z,61.90
2019-05-17T10:15:40.949Z,62.90
2019-05-17T10:18:11.069Z,64.10
2019-05-17T10:20:40.261Z,65.30
2019-05-17T10:23:10.421Z,67.10
2019-05-17T10:25:40.192Z,66.40
2019-05-17T10:28:10.024Z,66.80
2019-05-17T10:30:39.928Z,67.70
2019-05-17T10:33:09.803Z,67.60
2019-05-17T10:35:40.778Z,67.20
2019-05-17T10:38:10.260Z,67.20
2019-05-17T10:40:40.981Z,68.00
2019-05-17T10:43:10.387Z,67.40
2019-05-17T10:45:40.072Z,66.30
2019-05-17T10:48:10.392Z,65.30
2019-05-17T10:50:40.799Z,65.60
2019-05-17T10:53:10.218Z,66.10
2019-05-17T10:55:39.739Z,66.00
2019-05-17T10:58:10.045Z,66.80
2019-05-17T11:00:41.409Z,68.50
2019-05-17T11:03:10.048Z,68.30
2019-05-17T11:05:40.263Z,67.50
2019-05-17T11:08:10.691Z,67.90
2019-05-17T11:10:39.830Z,67.20
2019-05-17T11:13:09.667Z,66.60
2019-05-17T11:15:38.398Z,67.00
2019-05-17T11:18:07.163Z,66.50
2019-05-17T11:20:36.088Z,67.00
2019-05-17T11:23:07.292Z,66.90
2019-05-17T11:25:36.625Z,66.80
2019-05-17T11:28:05.441Z,66.20
2019-05-17T11:30:34.175Z,66.30
2019-05-17T11:33:02.939Z,66.80
2019-05-17T11:35:31.748Z,66.50
2019-05-17T11:38:00.512Z,65.90
2019-05-17T11:40:29.326Z,66.20
2019-05-17T11:42:58.131Z,65.30
2019-05-17T11:45:30.245Z,65.20
2019-05-17T11:47:57.345Z,64.20
2019-05-17T11:50:26.097Z,61.70
2019-05-17T11:52:54.902Z,60.80
2019-05-17T11:55:23.561Z,60.40
2019-05-17T11:57:52.336Z,59.60
2019-05-17T12:00:21.812Z,58.20
2019-05-17T12:02:50.569Z,58.10
2019-05-17T12:05:19.329Z,58.00
2019-05-17T12:07:48.098Z,59.70
2019-05-17T12:10:17.172Z,61.80
2019-05-17T12:12:45.927Z,61.70
2019-05-17T12:15:15.033Z,63.50
2019-05-17T12:17:43.809Z,63.90
2019-05-17T12:20:13.091Z,64.10
2019-05-17T12:22:41.793Z,63.80
2019-05-17T12:25:10.604Z,62.00
2019-05-17T12:27:39.335Z,61.90
2019-05-17T12:30:09.843Z,61.80
2019-05-17T12:32:38.812Z,62.10
2019-05-17T12:35:07.648Z,61.60
2019-05-17T12:37:36.386Z,61.70
2019-05-17T12:40:07.196Z,61.70
2019-05-17T12:42:35.929Z,62.20
2019-05-17T12:45:08.334Z,61.40
2019-05-17T12:47:37.128Z,61.70
2019-05-17T12:50:08.722Z,61.80
2019-05-17T12:52:37.470Z,62.10
2019-05-17T12:55:06.843Z,61.40
2019-05-17T12:57:35.589Z,60.50
2019-05-17T13:00:06.576Z,60.20
2019-05-17T13:02:35.322Z,59.20
2019-05-17T13:05:05.201Z,58.60
2019-05-17T13:07:33.938Z,57.90
2019-05-17T13:10:03.162Z,57.90
2019-05-17T13:12:31.890Z,58.70
2019-05-17T13:15:00.658Z,60.40
2019-05-17T13:17:29.446Z,60.80
2019-05-17T13:19:58.242Z,61.40
2019-05-17T13:22:27.057Z,62.30
2019-05-17T13:24:55.860Z,62.60
2019-05-17T13:27:24.594Z,61.50
2019-05-17T13:29:53.352Z,61.60
2019-05-17T13:32:22.112Z,62.20
2019-05-17T13:34:50.911Z,62.50
2019-05-17T13:37:19.650Z,62.60
2019-05-17T13:39:48.566Z,61.90
2019-05-17T13:42:17.306Z,61.70
2019-05-17T13:44:46.035Z,62.20
2019-05-17T13:47:14.928Z,62.80
2019-05-17T13:49:43.690Z,63.50
2019-05-17T13:52:12.521Z,63.50
2019-05-17T13:54:41.255Z,62.90
2019-05-17T13:57:11.472Z,63.20
2019-05-17T13:59:40.449Z,63.20
2019-05-17T14:02:09.261Z,62.40
2019-05-17T14:04:37.994Z,61.70
2019-05-17T14:07:06.878Z,62.80
2019-05-17T14:09:35.659Z,62.50
2019-05-17T14:12:04.554Z,63.70
2019-05-17T14:14:33.382Z,63.50
2019-05-17T14:17:02.476Z,62.70
2019-05-17T14:19:31.318Z,62.40
2019-05-17T14:22:00.054Z,61.50
2019-05-17T14:24:28.822Z,61.10
2019-05-17T14:26:57.554Z,60.60
2019-05-17T14:29:26.355Z,59.90
2019-05-17T14:31:55.106Z,59.30
2019-05-17T14:34:23.857Z,59.20
2019-05-17T14:36:52.578Z,58.50
2019-05-17T14:39:21.321Z,58.10
2019-05-17T14:41:50.064Z,58.00
2019-05-17T14:44:18.802Z,58.60
2019-05-17T14:46:47.626Z,58.10
2019-05-17T14:49:16.370Z,58.50
2019-05-17T14:51:45.106Z,58.10
2019-05-17T14:54:13.867Z,58.30
2019-05-17T14:56:42.949Z,57.50
2019-05-17T14:59:11.685Z,57.30
2019-05-17T15:01:40.441Z,57.90
2019-05-17T15:04:09.182Z,58.50
2019-05-17T15:06:37.946Z,58.50
2019-05-17T15:09:07.085Z,58.50
2019-05-17T15:11:35.910Z,59.00
2019-05-17T15:14:04.833Z,60.00
2019-05-17T15:16:33.601Z,60.00
2019-05-17T15:19:02.354Z,60.10
2019-05-17T15:21:31.079Z,60.20
2019-05-17T15:23:59.820Z,60.60
2019-05-17T15:26:28.625Z,61.40
2019-05-17T15:28:57.380Z,60.00
2019-05-17T15:31:26.118Z,59.70
2019-05-17T15:33:54.878Z,59.90
2019-05-17T15:36:23.650Z,59.60
2019-05-17T15:38:52.353Z,60.50
2019-05-17T15:41:21.090Z,61.00
2019-05-17T15:43:49.856Z,60.80
2019-05-17T15:46:18.572Z,60.50
2019-05-17T15:48:47.310Z,62.30
2019-05-17T15:51:16.001Z,62.40
2019-05-17T15:53:44.728Z,63.40
2019-05-17T15:56:13.496Z,63.80
2019-05-17T15:58:42.314Z,62.50
2019-05-17T16:01:11.058Z,60.90
2019-05-17T16:03:39.783Z,59.90
2019-05-17T16:06:08.517Z,60.60
2019-05-17T16:08:37.326Z,60.90
2019-05-17T16:11:06.199Z,60.80
2019-05-17T16:13:35.057Z,61.60
2019-05-17T16:16:03.798Z,61.60
2019-05-17T16:18:32.564Z,61.80
2019-05-17T16:21:01.366Z,62.40
2019-05-17T16:23:30.101Z,61.80
2019-05-17T16:25:58.842Z,62.00
2019-05-17T16:28:27.568Z,62.60
2019-05-17T16:30:56.327Z,63.20
2019-05-17T16:33:25.070Z,63.00
2019-05-17T16:35:53.800Z,63.50
2019-05-17T16:38:22.546Z,63.70
2019-05-17T16:40:51.368Z,63.90
2019-05-17T16:43:20.150Z,63.40
2019-05-17T16:45:48.894Z,63.20
2019-05-17T16:48:17.637Z,62.70
2019-05-17T16:50:46.605Z,62.00
2019-05-17T16:53:15.410Z,61.50
2019-05-17T16:55:44.081Z,62.00
2019-05-17T16:58:12.825Z,61.60
2019-05-17T17:00:43.118Z,61.60
2019-05-17T17:03:11.919Z,61.50
2019-05-17T17:05:40.738Z,61.90
2019-05-17T17:08:09.611Z,61.40
2019-05-17T17:10:38.478Z,61.50
2019-05-17T17:13:07.289Z,61.40
2019-05-17T17:15:36.104Z,62.20
2019-05-17T17:18:05.502Z,63.10
2019-05-17T17:20:34.241Z,62.10
2019-05-17T17:23:03.006Z,62.10
2019-05-17T17:25:31.805Z,62.00
2019-05-17T17:28:00.633Z,61.60
2019-05-17T17:30:29.363Z,61.70
2019-05-17T17:32:58.160Z,61.40
2019-05-17T17:35:26.901Z,62.00
2019-05-17T17:37:55.624Z,62.70
2019-05-17T17:40:25.597Z,63.40
2019-05-17T17:42:54.274Z,63.40
2019-05-17T17:45:26.585Z,62.60
2019-05-17T17:47:55.328Z,62.60
2019-05-17T17:50:24.077Z,61.60
2019-05-17T17:52:53.272Z,62.00
2019-05-17T17:55:22.329Z,61.60
2019-05-17T17:57:51.186Z,61.60
2019-05-17T18:00:21.470Z,62.00
2019-05-17T18:02:50.219Z,61.20
2019-05-17T18:05:19.038Z,61.80
2019-05-17T18:07:47.788Z,62.60
2019-05-17T18:10:31.282Z,63.40
2019-05-17T18:13:00.186Z,63.40
2019-05-17T18:15:40.902Z,62.70
2019-05-17T18:18:09.867Z,61.60
2019-05-17T18:20:38.730Z,62.20
2019-05-17T18:23:07.652Z,62.50
2019-05-17T18:25:36.565Z,62.80
2019-05-17T18:28:06.606Z,62.80
2019-05-17T18:30:36.225Z,62.80
2019-05-17T18:33:05.527Z,63.30
2019-05-17T18:35:34.993Z,63.50
2019-05-17T18:38:03.985Z,63.80
2019-05-17T18:40:32.854Z,63.40
2019-05-17T18:43:01.570Z,62.80
2019-05-17T18:45:30.576Z,62.90
2019-05-17T18:47:59.853Z,63.80
2019-05-17T18:50:29.107Z,63.30
2019-05-17T18:52:58.008Z,63.50
2019-05-17T18:55:26.725Z,63.60
2019-05-17T18:57:55.456Z,63.70
2019-05-17T19:00:24.374Z,63.80
2019-05-17T19:02:53.154Z,64.60
2019-05-17T19:05:22.031Z,63.80
2019-05-17T19:07:51.197Z,64.50
2019-05-17T19:10:20.072Z,65.50
2019-05-17T19:12:48.905Z,66.30
2019-05-17T19:15:19.099Z,67.00
2019-05-17T19:17:47.829Z,67.50
2019-05-17T19:20:16.725Z,65.90
2019-05-17T19:22:45.453Z,65.20
2019-05-17T19:25:17.404Z,65.10
2019-05-17T19:27:46.138Z,65.10
2019-05-17T19:30:15.526Z,65.40
2019-05-17T19:32:44.316Z,66.70
2019-05-17T19:35:13.313Z,66.70
2019-05-17T19:37:42.055Z,66.70
2019-05-17T19:40:11.754Z,66.80
2019-05-17T19:42:40.489Z,67.00
2019-05-17T19:45:09.527Z,66.20
2019-05-17T19:47:38.290Z,66.20
2019-05-17T19:50:08.052Z,66.60
2019-05-17T19:52:36.779Z,66.70
2019-05-17T19:55:09.010Z,66.60
2019-05-17T19:57:37.753Z,66.80
2019-05-17T20:00:08.915Z,66.60
2019-05-17T20:02:37.676Z,66.90
2019-05-17T20:05:07.483Z,66.80
2019-05-17T20:07:38.838Z,67.70
2019-05-17T20:10:08.677Z,67.50
2019-05-17T20:12:37.420Z,67.10
2019-05-17T20:15:17.164Z,67.40
2019-05-17T20:17:38.526Z,66.70
2019-05-17T20:20:08.499Z,66.50
2019-05-17T20:22:37.383Z,66.10
2019-05-17T20:25:07.235Z,66.80
2019-05-17T20:27:36.474Z,67.10
2019-05-17T20:30:08.810Z,67.20
2019-05-17T20:32:37.743Z,67.40
2019-05-17T20:35:07.704Z,67.20
2019-05-17T20:37:36.577Z,66.90
2019-05-17T20:40:08.871Z,67.50
2019-05-17T20:42:37.598Z,67.30
2019-05-17T20:45:09.043Z,67.70
2019-05-17T20:47:37.771Z,68.00
2019-05-17T20:50:08.549Z,68.30
2019-05-17T20:52:37.205Z,68.00
2019-05-17T20:55:06.595Z,68.40
2019-05-17T20:57:35.453Z,69.20
2019-05-17T21:00:06.831Z,69.60
2019-05-17T21:02:35.565Z,69.60
2019-05-17T21:05:07.125Z,68.90
2019-05-17T21:07:35.894Z,69.20
2019-05-17T21:10:05.956Z,69.50
2019-05-17T21:12:34.687Z,70.30
2019-05-17T21:15:04.569Z,70.40
2019-05-17T21:17:33.295Z,70.20
2019-05-17T21:20:02.038Z,70.20
2019-05-17T21:22:30.781Z,70.40
2019-05-17T21:24:59.834Z,70.30
2019-05-17T21:27:30.215Z,70.20
2019-05-17T21:29:59.220Z,70.90
2019-05-17T21:32:29.985Z,71.00
2019-05-17T21:35:01.687Z,71.10
2019-05-17T21:37:30.425Z,71.30
2019-05-17T21:39:59.184Z,71.10
2019-05-17T21:42:27.911Z,71.10
2019-05-17T21:44:56.659Z,71.60
2019-05-17T21:47:25.378Z,71.70
2019-05-17T21:49:54.045Z,71.60
2019-05-17T21:52:22.787Z,72.00
2019-05-17T21:54:51.529Z,72.90
2019-05-17T21:57:20.349Z,72.80
2019-05-17T21:59:49.109Z,72.80
2019-05-17T22:02:17.846Z,72.20
2019-05-17T22:04:46.586Z,72.40
2019-05-17T22:07:15.353Z,72.50
2019-05-17T22:09:44.076Z,72.50
2019-05-17T22:12:14.186Z,72.40
2019-05-17T22:14:43.002Z,72.40
2019-05-17T22:17:12.049Z,72.70
2019-05-17T22:19:43.701Z,72.70
2019-05-17T22:22:12.438Z,73.20
2019-05-17T22:24:41.123Z,73.80
2019-05-17T22:27:09.861Z,73.90
2019-05-17T22:29:38.528Z,73.80
2019-05-17T22:32:07.262Z,72.80
2019-05-17T22:34:36.030Z,72.40
2019-05-17T22:37:04.892Z,72.40
2019-05-17T22:39:35.173Z,72.80
2019-05-17T22:42:03.899Z,72.80
2019-05-17T22:44:35.348Z,72.80
2019-05-17T22:47:04.144Z,72.90
2019-05-17T22:49:33.032Z,73.30
2019-05-17T22:52:01.804Z,73.70
2019-05-17T22:54:30.537Z,73.70
2019-05-17T22:56:59.277Z,74.10
2019-05-17T22:59:28.069Z,73.70
2019-05-17T23:01:56.792Z,74.90
2019-05-17T23:04:25.552Z,75.20
2019-05-17T23:06:54.351Z,74.30
2019-05-17T23:09:23.071Z,73.90
2019-05-17T23:11:51.820Z,73.10
2019-05-17T23:14:20.562Z,72.90
2019-05-17T23:16:51.879Z,73.60
2019-05-17T23:19:19.638Z,73.70
2019-05-17T23:21:48.380Z,73.50
2019-05-17T23:24:17.129Z,74.00
2019-05-17T23:26:45.856Z,74.30
2019-05-17T23:29:14.606Z,74.10
2019-05-17T23:31:43.345Z,74.30
2019-05-17T23:34:12.100Z,75.10
2019-05-17T23:36:43.764Z,74.40
2019-05-17T23:39:12.578Z,73.90
2019-05-17T23:41:41.305Z,74.20
2019-05-17T23:44:10.030Z,74.40
2019-05-17T23:46:38.795Z,74.00
2019-05-17T23:49:07.543Z,74.70
2019-05-17T23:54:07.498Z,75.00
2019-05-17T23:56:36.161Z,74.00
2019-05-17T23:59:05.083Z,73.60
